Time,TemperatureF,DewpointF,PressureIn,WindDirection,WindDirectionDegrees,WindSpeedMPH,WindSpeedGustMPH,Humidity,HourlyPrecipIn,Conditions,Clouds,dailyrainin,SolarRadiationWatts/m^2,SoftwareType,DateUTC
2013-03-14 00:01:00,58.1,55.2,30.01,East,90,0.0,3.0,90,0.00,RA,SCT,0.00,0.0,WeatherDisplay:10.37,2013-03-14 10:01:00,
2013-03-14 00:10:00,58.0,55.1,30.01,East,90,0.0,2.0,90,0.00,SCT,SCT,0.00,0.0,WeatherDisplay:10.37,2013-03-14 10:10:00,
2013-03-14 00:20:00,57.8,55.2,30.00,East,90,0.0,2.0,91,0.00,CLR,SCT,0.00,0.0,WeatherDisplay:10.37,2013-03-14 10:20:00,
2013-03-14 00:30:00,57.8,55.2,29.99,East,91,0.0,4.0,91,0.00,CLR,SCT,0.00,0.0,WeatherDisplay:10.37,2013-03-14 10:30:00,
2013-03-14 00:40:00,57.9,55.3,29.99,East,91,1.0,3.0,91,0.00,CLR,SCT,0.00,0.0,WeatherDisplay:10.37,2013-03-14 10:40:00,
2013-03-14 00:50:00,58.1,55.5,29.98,East,94,1.0,5.0,91,0.00,CLR,SCT,0.00,0.0,WeatherDisplay:10.37,2013-03-14 10:50:00,
2013-03-14 01:01:00,58.3,55.4,29.98,East,99,0.0,3.0,90,0.00,CLR,SCT,0.00,0.0,WeatherDisplay:10.37,2013-03-14 11:01:00,
2013-03-14 01:10:00,58.3,55.4,29.98,East,99,0.0,2.0,90,0.00,CLR,SCT,0.00,0.0,WeatherDisplay:10.37,2013-03-14 11:10:00,
2013-03-14 01:20:00,58.3,55.4,29.98,East,99,0.0,2.0,90,0.00,CLR,SCT,0.00,0.0,WeatherDisplay:10.37,2013-03-14 11:20:00,
2013-03-14 01:30:00,58.2,55.3,29.98,East,99,0.0,1.0,90,0.00,CLR,SCT,0.00,0.0,WeatherDisplay:10.37,2013-03-14 11:30:00,
2013-03-14 01:40:00,58.2,55.3,29.98,East,99,0.0,1.0,90,0.00,CLR,SCT,0.00,0.0,WeatherDisplay:10.37,2013-03-14 11:40:00,
2013-03-14 01:50:00,58.2,55.3,29.98,East,99,0.0,1.0,90,0.00,CLR,SCT,0.00,0.0,WeatherDisplay:10.37,2013-03-14 11:50:00,
2013-03-14 02:01:00,58.2,55.3,29.97,East,99,0.0,2.0,90,0.00,CLR,SCT,0.00,0.0,WeatherDisplay:10.37,2013-03-14 12:01:00,
2013-03-14 02:10:00,58.2,55.3,29.97,East,99,1.0,2.0,90,0.00,CLR,SCT,0.00,0.0,WeatherDisplay:10.37,2013-03-14 12:10:00,
2013-03-14 02:20:00,58.3,55.4,29.97,East,99,0.0,2.0,90,0.00,CLR,SCT,0.00,0.0,WeatherDisplay:10.37,2013-03-14 12:20:00,
2013-03-14 02:30:00,58.2,55.3,29.96,East,99,0.0,1.0,90,0.00,CLR,SCT,0.00,0.0,WeatherDisplay:10.37,2013-03-14 12:30:00,
2013-03-14 02:40:00,58.2,55.3,29.98,East,99,0.0,2.0,90,0.00,CLR,SCT,0.00,0.0,WeatherDisplay:10.37,2013-03-14 12:40:00,
2013-03-14 02:50:00,58.2,55.3,29.97,East,101,0.0,3.0,90,0.00,CLR,SCT,0.00,0.0,WeatherDisplay:10.37,2013-03-14 12:50:00,
2013-03-14 03:01:00,58.3,55.4,29.97,ESE,102,0.0,3.0,90,0.00,CLR,SCT,0.00,0.0,WeatherDisplay:10.37,2013-03-14 13:01:00,
2013-03-14 03:10:00,58.2,55.3,29.97,ESE,102,0.0,2.0,90,0.00,BKN,SCT,0.00,0.0,WeatherDisplay:10.37,2013-03-14 13:10:00,
2013-03-14 03:20:00,58.3,55.4,29.97,SE,140,1.0,5.0,90,0.00,BKN,SCT,0.00,0.0,WeatherDisplay:10.37,2013-03-14 13:20:00,
2013-03-14 03:30:00,58.5,55.6,29.97,SSE,151,0.0,4.0,90,0.00,BKN,SCT,0.00,0.0,WeatherDisplay:10.37,2013-03-14 13:30:00,
2013-03-14 03:40:00,58.6,55.7,29.97,SSE,156,0.0,2.0,90,0.00,BKN,SCT,0.00,0.0,WeatherDisplay:10.37,2013-03-14 13:40:00,
2013-03-14 03:50:00,58.7,55.8,29.97,SSE,156,1.0,3.0,90,0.00,BKN,SCT,0.00,0.0,WeatherDisplay:10.37,2013-03-14 13:50:00,
2013-03-14 04:01:00,58.8,55.9,29.96,SSE,150,0.0,3.0,90,0.00,BKN,SCT,0.00,0.0,WeatherDisplay:10.37,2013-03-14 14:01:00,
2013-03-14 04:10:00,58.9,56.0,29.96,SSE,150,0.0,2.0,90,0.00,BKN,SCT,0.00,0.0,WeatherDisplay:10.37,2013-03-14 14:10:00,
2013-03-14 04:20:00,58.9,55.7,29.97,SSE,150,0.0,0.0,89,0.00,BKN,SCT,0.00,0.0,WeatherDisplay:10.37,2013-03-14 14:20:00,
2013-03-14 04:30:00,58.8,55.9,29.97,SSE,150,0.0,1.0,90,0.00,BKN,SCT,0.00,0.0,WeatherDisplay:10.37,2013-03-14 14:30:00,
2013-03-14 04:40:00,58.8,55.9,29.97,SSE,150,0.0,1.0,90,0.00,BKN,SCT,0.00,0.0,WeatherDisplay:10.37,2013-03-14 14:40:00,
2013-03-14 04:50:00,58.9,56.0,29.97,SSE,150,0.0,2.0,90,0.00,BKN,SCT,0.00,0.0,WeatherDisplay:10.37,2013-03-14 14:50:00,
2013-03-14 05:01:00,59.0,56.1,29.97,SSE,150,0.0,2.0,90,0.00,BKN,SCT,0.00,0.0,WeatherDisplay:10.37,2013-03-14 15:01:00,
2013-03-14 05:10:00,59.0,56.1,29.96,SSE,150,1.0,2.0,90,0.00,BKN,SCT,0.00,0.0,WeatherDisplay:10.37,2013-03-14 15:10:00,
2013-03-14 05:20:00,59.0,55.8,29.97,SSE,150,0.0,3.0,89,0.00,BKN,SCT,0.00,0.0,WeatherDisplay:10.37,2013-03-14 15:20:00,
2013-03-14 05:30:00,58.9,55.7,29.97,SSE,150,0.0,3.0,89,0.00,BKN,SCT,0.00,0.0,WeatherDisplay:10.37,2013-03-14 15:30:00,
2013-03-14 05:40:00,59.0,55.7,29.97,SSE,150,0.0,3.0,89,0.00,BKN,SCT,0.00,0.0,WeatherDisplay:10.37,2013-03-14 15:40:00,
2013-03-14 05:50:00,59.1,55.8,29.97,SSE,150,1.0,2.0,89,0.00,BKN,SCT,0.00,0.0,WeatherDisplay:10.37,2013-03-14 15:50:00,
2013-03-14 06:01:00,59.2,56.0,29.97,SSE,150,0.0,3.0,89,0.00,BKN,SCT,0.00,0.0,WeatherDisplay:10.37,2013-03-14 16:01:00,
2013-03-14 06:10:00,59.2,56.0,29.97,SSE,150,1.0,2.0,89,0.00,BKN,SCT,0.00,0.0,WeatherDisplay:10.37,2013-03-14 16:10:00,
2013-03-14 06:20:00,59.4,56.5,29.98,SSE,150,0.0,2.0,90,0.00,BKN,SCT,0.00,0.0,WeatherDisplay:10.37,2013-03-14 16:20:00,
2013-03-14 06:30:00,59.5,56.6,29.99,SSE,150,0.0,2.0,90,0.00,BKN,SCT,0.00,0.0,WeatherDisplay:10.37,2013-03-14 16:30:00,
2013-03-14 06:40:00,59.6,56.4,29.99,SSE,150,0.0,3.0,89,0.00,BKN,SCT,0.00,0.0,WeatherDisplay:10.37,2013-03-14 16:40:00,
2013-03-14 06:50:00,59.5,56.3,29.99,SSE,150,0.0,2.0,89,0.00,BKN,SCT,0.00,0.0,WeatherDisplay:10.37,2013-03-14 16:50:00,
2013-03-14 07:01:00,59.5,56.6,29.98,SSE,150,0.0,2.0,90,0.00,BKN,SCT,0.00,0.1,WeatherDisplay:10.37,2013-03-14 17:01:00,
2013-03-14 07:10:00,59.6,56.7,29.98,SSE,150,0.0,1.0,90,0.00,BKN,SCT,0.00,0.4,WeatherDisplay:10.37,2013-03-14 17:10:00,
2013-03-14 07:20:00,59.8,56.9,29.99,SSE,150,0.0,2.0,90,0.00,FEW,SCT,0.00,1.1,WeatherDisplay:10.37,2013-03-14 17:20:00,
2013-03-14 07:30:00,60.1,57.5,29.99,SSE,150,0.0,2.0,91,0.00,FEW,SCT,0.00,1.8,WeatherDisplay:10.37,2013-03-14 17:30:00,
2013-03-14 07:40:00,60.6,58.0,30.00,SSE,150,0.0,2.0,91,0.00,FEW,SCT,0.00,3.9,WeatherDisplay:10.37,2013-03-14 17:40:00,
2013-03-14 07:50:00,61.3,57.7,29.99,SSE,149,1.0,3.0,88,0.00,FEW,SCT,0.00,5.0,WeatherDisplay:10.37,2013-03-14 17:50:00,
2013-03-14 08:01:00,62.2,58.3,29.99,SSE,148,1.0,4.0,87,0.00,FEW,SCT,0.00,19.2,WeatherDisplay:10.37,2013-03-14 18:01:00,
2013-03-14 08:10:00,63.6,58.7,29.99,SE,146,2.0,4.0,84,0.00,FEW,SCT,0.00,18.5,WeatherDisplay:10.37,2013-03-14 18:10:00,
2013-03-14 08:20:00,65.2,59.9,29.99,SE,144,1.0,3.0,83,0.00,FEW,SCT,0.00,26.6,WeatherDisplay:10.37,2013-03-14 18:20:00,
2013-03-14 08:31:00,66.3,59.6,30.00,SE,140,0.0,4.0,79,0.00,FEW,SCT,0.00,24.3,WeatherDisplay:10.37,2013-03-14 18:31:00,
2013-03-14 08:40:00,67.1,60.3,30.00,SE,140,1.0,2.0,79,0.00,FEW,SCT,0.00,43.7,WeatherDisplay:10.37,2013-03-14 18:40:00,
2013-03-14 08:50:00,67.8,60.3,30.00,East,79,2.0,5.0,77,0.00,FEW,SCT,0.00,46.0,WeatherDisplay:10.37,2013-03-14 18:50:00,
2013-03-14 09:01:00,68.1,59.5,30.00,ENE,58,1.0,6.0,74,0.00,FEW,SCT,0.00,42.1,WeatherDisplay:10.37,2013-03-14 19:01:00,
2013-03-14 09:10:00,68.1,59.5,30.00,NE,50,2.0,6.0,74,0.00,FEW,SCT,0.00,58.1,WeatherDisplay:10.37,2013-03-14 19:10:00,
2013-03-14 09:20:00,68.3,60.1,30.01,NNE,16,1.0,5.0,75,0.00,FEW,SCT,0.00,69.0,WeatherDisplay:10.37,2013-03-14 19:20:00,
2013-03-14 09:31:00,68.4,60.2,30.01,NNE,13,1.0,3.0,75,0.00,FEW,SCT,0.00,74.5,WeatherDisplay:10.37,2013-03-14 19:31:00,
2013-03-14 09:40:00,68.8,60.5,30.01,North,355,2.0,4.0,75,0.00,FEW,SCT,0.00,100.3,WeatherDisplay:10.37,2013-03-14 19:40:00,
2013-03-14 09:50:00,69.0,61.9,30.02,NNW,348,0.0,6.0,78,0.00,FEW,SCT,0.00,123.9,WeatherDisplay:10.37,2013-03-14 19:50:00,
2013-03-14 10:01:00,69.1,61.9,30.02,NNW,348,0.0,4.0,78,0.00,FEW,SCT,0.00,177.5,WeatherDisplay:10.37,2013-03-14 20:01:00,
2013-03-14 10:10:00,69.6,61.3,30.02,NNW,337,0.0,4.0,75,0.00,FEW,SCT,0.00,252.4,WeatherDisplay:10.37,2013-03-14 20:10:00,
2013-03-14 10:20:00,70.1,62.2,30.02,NNW,327,1.0,4.0,76,0.00,FEW,SCT,0.00,133.6,WeatherDisplay:10.37,2013-03-14 20:20:00,
2013-03-14 10:31:00,69.9,62.4,30.02,NNW,341,1.0,7.0,77,0.00,FEW,SCT,0.00,102.1,WeatherDisplay:10.37,2013-03-14 20:31:00,
2013-03-14 10:40:00,70.0,61.7,30.02,North,354,0.0,2.0,75,0.00,FEW,SCT,0.00,260.8,WeatherDisplay:10.37,2013-03-14 20:40:00,
2013-03-14 10:50:00,70.8,61.7,30.02,North,353,0.0,3.0,73,0.00,FEW,SCT,0.00,193.7,WeatherDisplay:10.37,2013-03-14 20:50:00,
2013-03-14 11:01:00,71.5,60.8,30.01,WSW,248,0.0,5.0,69,0.00,FEW,SCT,0.00,636.8,WeatherDisplay:10.37,2013-03-14 21:01:00,
2013-03-14 11:10:00,72.4,61.7,30.01,WSW,254,1.0,4.0,69,0.00,FEW,SCT,0.00,240.6,WeatherDisplay:10.37,2013-03-14 21:10:00,
2013-03-14 11:20:00,72.2,61.5,30.01,WSW,258,1.0,6.0,69,0.00,SCT,SCT,0.00,461.8,WeatherDisplay:10.37,2013-03-14 21:20:00,
2013-03-14 11:31:00,73.1,61.1,30.00,West,271,2.0,6.0,66,0.00,SCT,SCT,0.00,792.9,WeatherDisplay:10.37,2013-03-14 21:31:00,
2013-03-14 11:40:00,74.3,60.9,29.99,WNW,294,2.0,8.0,63,0.00,SCT,SCT,0.00,746.2,WeatherDisplay:10.37,2013-03-14 21:40:00,
2013-03-14 11:50:00,75.3,62.7,29.99,West,271,5.0,12.0,65,0.00,SCT,SCT,0.00,478.0,WeatherDisplay:10.37,2013-03-14 21:50:00,
2013-03-14 12:01:00,74.9,61.4,29.99,West,275,7.0,10.0,63,0.00,SCT,SCT,0.00,323.6,WeatherDisplay:10.37,2013-03-14 22:01:00,
2013-03-14 12:10:00,75.2,61.7,29.98,WNW,303,2.0,12.0,63,0.00,SCT,SCT,0.00,901.0,WeatherDisplay:10.37,2013-03-14 22:10:00,
2013-03-14 12:20:00,76.1,62.2,29.98,West,269,7.0,10.0,62,0.00,SCT,SCT,0.00,443.1,WeatherDisplay:10.37,2013-03-14 22:20:00,
2013-03-14 12:31:00,76.2,62.2,29.97,WNW,282,5.0,12.0,62,0.00,SCT,SCT,0.00,366.7,WeatherDisplay:10.37,2013-03-14 22:31:00,
2013-03-14 12:40:00,75.8,62.3,29.96,West,260,8.0,13.0,63,0.00,SCT,SCT,0.00,901.6,WeatherDisplay:10.37,2013-03-14 22:40:00,
2013-03-14 12:50:00,76.5,63.4,29.96,WSW,251,9.0,15.0,64,0.00,SCT,SCT,0.00,749.0,WeatherDisplay:10.37,2013-03-14 22:50:00,
2013-03-14 13:01:00,75.3,61.8,29.96,WSW,254,9.0,15.0,63,0.00,SCT,SCT,0.00,780.5,WeatherDisplay:10.37,2013-03-14 23:01:00,
2013-03-14 13:10:00,76.0,61.5,29.95,West,264,7.0,16.0,61,0.00,SCT,SCT,0.00,467.9,WeatherDisplay:10.37,2013-03-14 23:10:00,
2013-03-14 13:20:00,76.4,61.5,29.95,West,264,7.0,15.0,60,0.00,SCT,SCT,0.00,346.7,WeatherDisplay:10.37,2013-03-14 23:20:00,
2013-03-14 13:31:00,76.1,61.7,29.95,West,262,9.0,14.0,61,0.00,SCT,SCT,0.00,513.4,WeatherDisplay:10.37,2013-03-14 23:31:00,
2013-03-14 13:40:00,76.2,62.2,29.94,West,263,13.0,17.0,62,0.00,SCT,SCT,0.00,466.6,WeatherDisplay:10.37,2013-03-14 23:40:00,
2013-03-14 13:50:00,75.9,63.7,29.94,West,273,10.0,14.0,66,0.00,SCT,SCT,0.00,744.5,WeatherDisplay:10.37,2013-03-14 23:50:00,
2013-03-14 14:01:00,76.1,63.5,29.93,West,272,8.0,13.0,65,0.00,SCT,SCT,0.00,416.5,WeatherDisplay:10.37,2013-03-15 00:01:00,
2013-03-14 14:10:00,76.2,66.1,29.93,NW,321,7.0,12.0,71,0.00,SCT,SCT,0.00,747.7,WeatherDisplay:10.37,2013-03-15 00:10:00,
2013-03-14 14:20:00,76.1,66.0,29.93,NNW,340,6.0,10.0,71,0.00,SCT,SCT,0.00,546.2,WeatherDisplay:10.37,2013-03-15 00:20:00,
2013-03-14 14:31:00,75.9,65.4,29.93,North,2,7.0,9.0,70,0.00,SCT,SCT,0.00,220.0,WeatherDisplay:10.37,2013-03-15 00:31:00,
2013-03-14 14:40:00,73.7,64.9,29.93,NNE,19,1.0,8.0,74,0.00,SCT,SCT,0.00,203.7,WeatherDisplay:10.37,2013-03-15 00:40:00,
2013-03-14 14:50:00,72.6,63.1,29.92,NE,36,5.0,12.0,72,0.00,SCT,SCT,0.00,159.8,WeatherDisplay:10.37,2013-03-15 00:50:00,
2013-03-14 15:01:00,71.9,63.5,29.92,NNE,26,3.0,9.0,75,0.00,SCT,SCT,0.00,104.6,WeatherDisplay:10.37,2013-03-15 01:01:00,
2013-03-14 15:10:00,71.3,63.7,29.92,North,7,1.0,8.0,77,0.00,SCT,SCT,0.00,288.4,WeatherDisplay:10.37,2013-03-15 01:10:00,
2013-03-14 15:20:00,72.0,63.6,29.91,NE,36,1.0,7.0,75,0.00,SCT,SCT,0.00,113.9,WeatherDisplay:10.37,2013-03-15 01:20:00,
2013-03-14 15:31:00,71.8,63.5,29.91,NE,35,2.0,9.0,75,0.00,SCT,SCT,0.00,57.3,WeatherDisplay:10.37,2013-03-15 01:31:00,
2013-03-14 15:40:00,71.4,63.5,29.90,NE,36,2.0,8.0,76,0.00,SCT,SCT,0.00,70.7,WeatherDisplay:10.37,2013-03-15 01:40:00,
2013-03-14 15:50:00,71.1,63.5,29.91,NE,40,2.0,7.0,77,0.00,SCT,SCT,0.00,57.5,WeatherDisplay:10.37,2013-03-15 01:50:00,
2013-03-14 16:01:00,70.7,63.9,29.91,North,6,1.0,5.0,79,0.00,SCT,SCT,0.00,38.6,WeatherDisplay:10.37,2013-03-15 02:01:00,
2013-03-14 16:10:00,70.4,63.6,29.91,NNE,25,0.0,8.0,79,0.00,BKN,SCT,0.00,40.5,WeatherDisplay:10.37,2013-03-15 02:10:00,
2013-03-14 16:20:00,70.2,63.4,29.92,NNE,30,3.0,7.0,79,0.00,BKN,SCT,0.00,31.7,WeatherDisplay:10.37,2013-03-15 02:20:00,
2013-03-14 16:31:00,70.1,63.3,29.92,NE,53,0.0,7.0,79,0.00,BKN,SCT,0.00,22.4,WeatherDisplay:10.37,2013-03-15 02:31:00,
2013-03-14 16:40:00,70.2,63.7,29.92,NE,37,1.0,6.0,80,0.00,BKN,SCT,0.00,16.9,WeatherDisplay:10.37,2013-03-15 02:40:00,
2013-03-14 16:50:00,69.9,63.4,29.92,NE,41,1.0,7.0,80,0.00,BKN,SCT,0.00,6.7,WeatherDisplay:10.37,2013-03-15 02:50:00,
2013-03-14 17:01:00,69.5,63.4,29.92,NE,36,0.0,3.0,81,0.00,BKN,SCT,0.00,5.8,WeatherDisplay:10.37,2013-03-15 03:01:00,
2013-03-14 17:10:00,69.3,63.2,29.93,NE,34,0.0,3.0,81,0.00,BKN,SCT,0.00,3.7,WeatherDisplay:10.37,2013-03-15 03:10:00,
2013-03-14 17:20:00,69.1,63.0,29.93,NNE,32,1.0,4.0,81,0.00,BKN,SCT,0.00,2.5,WeatherDisplay:10.37,2013-03-15 03:20:00,
2013-03-14 17:31:00,68.8,62.7,29.93,NNE,31,0.0,4.0,81,0.00,BKN,SCT,0.00,1.6,WeatherDisplay:10.37,2013-03-15 03:31:00,
2013-03-14 17:40:00,68.6,62.9,29.93,NNE,30,0.0,3.0,82,0.00,BKN,SCT,0.00,0.9,WeatherDisplay:10.37,2013-03-15 03:40:00,
2013-03-14 17:50:00,68.5,62.8,29.93,NNE,29,1.0,3.0,82,0.00,BKN,SCT,0.00,0.3,WeatherDisplay:10.37,2013-03-15 03:50:00,
2013-03-14 18:01:00,68.3,62.6,29.93,NNE,31,1.0,3.0,82,0.00,BKN,SCT,0.00,0.1,WeatherDisplay:10.37,2013-03-15 04:01:00,
2013-03-14 18:10:00,68.1,62.7,29.94,NNE,33,0.0,2.0,83,0.00,BKN,SCT,0.00,0.0,WeatherDisplay:10.37,2013-03-15 04:10:00,
2013-03-14 18:20:00,67.9,62.2,29.94,NNE,33,0.0,3.0,82,0.00,BKN,SCT,0.00,0.0,WeatherDisplay:10.37,2013-03-15 04:20:00,
2013-03-14 18:31:00,67.7,61.7,29.94,NNE,33,1.0,2.0,81,0.00,BKN,SCT,0.00,0.0,WeatherDisplay:10.37,2013-03-15 04:31:00,
2013-03-14 18:40:00,67.5,61.8,29.94,NNE,33,0.0,1.0,82,0.00,BKN,SCT,0.00,0.0,WeatherDisplay:10.37,2013-03-15 04:40:00,
2013-03-14 18:50:00,67.2,61.6,29.94,NNE,33,1.0,3.0,82,0.00,BKN,SCT,0.00,0.0,WeatherDisplay:10.37,2013-03-15 04:50:00,
2013-03-14 19:01:00,67.1,61.4,29.94,NNE,33,0.0,2.0,82,0.00,BKN,SCT,0.00,0.0,WeatherDisplay:10.37,2013-03-15 05:01:00,
2013-03-14 19:10:00,66.9,61.2,29.94,NNE,33,0.0,1.0,82,0.00,BKN,SCT,0.00,0.0,WeatherDisplay:10.37,2013-03-15 05:10:00,
2013-03-14 19:20:00,66.9,61.2,29.94,NNE,33,0.0,0.0,82,0.00,BKN,SCT,0.00,0.0,WeatherDisplay:10.37,2013-03-15 05:20:00,
2013-03-14 19:31:00,66.8,61.5,29.94,NNE,33,0.0,0.0,83,0.00,BKN,SCT,0.00,0.0,WeatherDisplay:10.37,2013-03-15 05:31:00,
2013-03-14 19:40:00,66.7,61.7,29.94,NNE,33,0.0,0.0,84,0.00,BKN,SCT,0.00,0.0,WeatherDisplay:10.37,2013-03-15 05:40:00,
2013-03-14 19:50:00,66.6,61.9,29.94,NNE,33,0.0,0.0,85,0.00,BKN,SCT,0.00,0.0,WeatherDisplay:10.37,2013-03-15 05:50:00,
2013-03-14 20:01:00,66.5,61.8,29.95,NNE,33,0.0,2.0,85,0.00,BKN,SCT,0.00,0.0,WeatherDisplay:10.37,2013-03-15 06:01:00,
2013-03-14 20:10:00,66.3,61.7,29.94,NNE,33,0.0,2.0,85,0.00,FEW,SCT,0.00,0.0,WeatherDisplay:10.37,2013-03-15 06:10:00,
2013-03-14 20:20:00,66.1,61.8,29.95,NNE,33,0.0,0.0,86,0.00,FEW,SCT,0.00,0.0,WeatherDisplay:10.37,2013-03-15 06:20:00,
2013-03-14 20:31:00,66.0,62.1,29.95,NNE,33,0.0,1.0,87,0.00,FEW,SCT,0.00,0.0,WeatherDisplay:10.37,2013-03-15 06:31:00,
2013-03-14 20:40:00,66.0,62.0,29.95,NNE,33,0.0,2.0,87,0.00,FEW,SCT,0.00,0.0,WeatherDisplay:10.37,2013-03-15 06:40:00,
2013-03-14 20:50:00,65.9,62.2,29.96,NNE,32,0.0,3.0,88,0.00,FEW,SCT,0.00,0.0,WeatherDisplay:10.37,2013-03-15 06:50:00,
2013-03-14 21:01:00,65.9,62.2,29.96,NNE,32,0.0,2.0,88,0.00,FEW,SCT,0.00,0.0,WeatherDisplay:10.37,2013-03-15 07:01:00,
2013-03-14 21:10:00,65.9,62.2,29.96,NNE,31,0.0,3.0,88,0.00,SCT,SCT,0.00,0.0,WeatherDisplay:10.37,2013-03-15 07:10:00,
2013-03-14 21:20:00,66.0,62.3,29.96,NNW,347,1.0,4.0,88,0.00,SCT,SCT,0.00,0.0,WeatherDisplay:10.37,2013-03-15 07:20:00,
2013-03-14 21:30:00,66.0,62.3,29.96,NNW,346,0.0,2.0,88,0.00,SCT,SCT,0.00,0.0,WeatherDisplay:10.37,2013-03-15 07:30:00,
2013-03-14 21:40:00,65.9,62.3,29.97,NNW,346,0.0,2.0,88,0.00,SCT,SCT,0.00,0.0,WeatherDisplay:10.37,2013-03-15 07:40:00,
2013-03-14 21:50:00,65.9,62.2,29.96,NNW,346,0.0,2.0,88,0.00,SCT,SCT,0.00,0.0,WeatherDisplay:10.37,2013-03-15 07:50:00,
2013-03-14 22:00:00,65.8,62.2,29.97,NNW,346,0.0,2.0,88,0.00,SCT,SCT,0.00,0.0,WeatherDisplay:10.37,2013-03-15 08:00:00,
2013-03-14 22:10:00,65.8,62.1,29.96,West,265,1.0,4.0,88,0.00,SCT,SCT,0.00,0.0,WeatherDisplay:10.37,2013-03-15 08:10:00,
2013-03-14 22:20:00,65.8,62.1,29.96,SW,230,1.0,4.0,88,0.00,BKN,SCT,0.00,0.0,WeatherDisplay:10.37,2013-03-15 08:20:00,
2013-03-14 22:30:00,65.8,62.5,29.96,SW,224,2.0,4.0,89,0.00,BKN,SCT,0.00,0.0,WeatherDisplay:10.37,2013-03-15 08:30:00,
2013-03-14 22:40:00,65.7,62.4,29.95,SSW,212,2.0,5.0,89,0.00,BKN,SCT,0.00,0.0,WeatherDisplay:10.37,2013-03-15 08:40:00,
2013-03-14 22:50:00,65.4,62.1,29.95,SSW,210,1.0,5.0,89,0.00,BKN,SCT,0.00,0.0,WeatherDisplay:10.37,2013-03-15 08:50:00,
2013-03-14 23:00:00,65.3,62.3,29.95,SSW,208,0.0,5.0,90,0.00,BKN,SCT,0.00,0.0,WeatherDisplay:10.37,2013-03-15 09:00:00,
2013-03-14 23:10:00,65.4,62.7,29.94,SW,218,2.0,5.0,91,0.00,BKN,SCT,0.00,0.0,WeatherDisplay:10.37,2013-03-15 09:10:00,
2013-03-14 23:20:00,65.4,62.7,29.94,SW,231,1.0,6.0,91,0.00,BKN,SCT,0.00,0.0,WeatherDisplay:10.37,2013-03-15 09:20:00,
2013-03-14 23:30:00,65.3,62.6,29.94,SW,227,2.0,7.0,91,0.00,BKN,SCT,0.00,0.0,WeatherDisplay:10.37,2013-03-15 09:30:00,
2013-03-14 23:40:00,65.3,62.6,29.94,SW,235,5.0,7.0,91,0.00,BKN,SCT,0.00,0.0,WeatherDisplay:10.37,2013-03-15 09:40:00,
2013-03-14 23:50:00,65.0,62.3,29.94,SW,228,3.0,6.0,91,0.00,BKN,SCT,0.00,0.0,WeatherDisplay:10.37,2013-03-15 09:50:00,